sensor_id;sensor_type;location;lat;lon;timestamp;pressure;altitude;pressure_sealevel;temperature;humidity
26807;BME280;14380;49.910;6.792;2022-10-18T00:01:06;99653.69;;;17.34;100.00
26807;BME280;14380;49.910;6.792;2022-10-18T00:03:33;99655.47;;;17.33;100.00
26807;BME280;14380;49.910;6.792;2022-10-18T00:06:02;99660.31;;;17.41;100.00
26807;BME280;14380;49.910;6.792;2022-10-18T00:08:29;99671.00;;;17.41;100.00
26807;BME280;14380;49.910;6.792;2022-10-18T00:10:56;99673.66;;;17.41;100.00
26807;BME280;14380;49.910;6.792;2022-10-18T00:13:23;99680.03;;;17.51;100.00
26807;BME280;14380;49.910;6.792;2022-10-18T00:15:50;99684.75;;;17.61;100.00
26807;BME280;14380;49.910;6.792;2022-10-18T00:18:18;99682.94;;;17.61;100.00
26807;BME280;14380;49.910;6.792;2022-10-18T00:20:55;99684.75;;;17.48;100.00
26807;BME280;14380;49.910;6.792;2022-10-18T00:23:24;99673.75;;;17.27;100.00
26807;BME280;14380;49.910;6.792;2022-10-18T00:25:58;99666.41;;;17.43;100.00
26807;BME280;14380;49.910;6.792;2022-10-18T00:28:24;99677.25;;;17.27;100.00
26807;BME280;14380;49.910;6.792;2022-10-18T00:30:51;99676.09;;;17.31;100.00
26807;BME280;14380;49.910;6.792;2022-10-18T00:33:18;99689.88;;;17.38;100.00
26807;BME280;14380;49.910;6.792;2022-10-18T00:35:44;99691.38;;;17.42;100.00
26807;BME280;14380;49.910;6.792;2022-10-18T00:38:11;99698.56;;;17.01;100.00
26807;BME280;14380;49.910;6.792;2022-10-18T00:40:39;99703.44;;;17.22;100.00
26807;BME280;14380;49.910;6.792;2022-10-18T00:43:08;99707.47;;;17.28;100.00
26807;BME280;14380;49.910;6.792;2022-10-18T00:45:39;99705.25;;;17.34;100.00
26807;BME280;14380;49.910;6.792;2022-10-18T00:48:05;99696.91;;;17.26;100.00
26807;BME280;14380;49.910;6.792;2022-10-18T00:50:33;99686.88;;;17.30;100.00
26807;BME280;14380;49.910;6.792;2022-10-18T00:53:03;99692.22;;;17.17;100.00
26807;BME280;14380;49.910;6.792;2022-10-18T00:55:32;99691.91;;;17.34;100.00
26807;BME280;14380;49.910;6.792;2022-10-18T00:58:01;99691.06;;;17.34;100.00
26807;BME280;14380;49.910;6.792;2022-10-18T01:00:28;99688.59;;;17.44;100.00
26807;BME280;14380;49.910;6.792;2022-10-18T01:02:57;99686.69;;;17.33;100.00
26807;BME280;14380;49.910;6.792;2022-10-18T01:05:24;99691.88;;;17.21;100.00
26807;BME280;14380;49.910;6.792;2022-10-18T01:08:06;99692.84;;;17.20;100.00
26807;BME280;14380;49.910;6.792;2022-10-18T01:10:41;99685.81;;;17.32;100.00
26807;BME280;14380;49.910;6.792;2022-10-18T01:13:23;99673.66;;;17.41;100.00
26807;BME280;14380;49.910;6.792;2022-10-18T01:15:56;99681.00;;;17.24;100.00
26807;BME280;14380;49.910;6.792;2022-10-18T01:18:26;99678.34;;;17.50;100.00
26807;BME280;14380;49.910;6.792;2022-10-18T01:21:17;99665.88;;;17.38;100.00
26807;BME280;14380;49.910;6.792;2022-10-18T01:24:29;99660.81;;;17.46;100.00
26807;BME280;14380;49.910;6.792;2022-10-18T01:27:22;99657.41;;;17.31;100.00
26807;BME280;14380;49.910;6.792;2022-10-18T01:32:41;99654.09;;;17.28;100.00
26807;BME280;14380;49.910;6.792;2022-10-18T01:35:13;99648.88;;;17.39;100.00
26807;BME280;14380;49.910;6.792;2022-10-18T01:37:44;99649.41;;;17.31;100.00
26807;BME280;14380;49.910;6.792;2022-10-18T01:40:16;99644.81;;;17.46;100.00
26807;BME280;14380;49.910;6.792;2022-10-18T01:42:45;99645.13;;;17.54;100.00
26807;BME280;14380;49.910;6.792;2022-10-18T01:45:14;99640.00;;;17.38;100.00
26807;BME280;14380;49.910;6.792;2022-10-18T01:47:43;99634.25;;;17.32;100.00
26807;BME280;14380;49.910;6.792;2022-10-18T01:50:11;99629.75;;;17.45;100.00
26807;BME280;14380;49.910;6.792;2022-10-18T01:52:46;99632.22;;;17.35;100.00
26807;BME280;14380;49.910;6.792;2022-10-18T01:55:13;99633.50;;;17.43;100.00
26807;BME280;14380;49.910;6.792;2022-10-18T01:57:43;99639.03;;;17.52;100.00
26807;BME280;14380;49.910;6.792;2022-10-18T02:00:14;99637.84;;;17.57;100.00
26807;BME280;14380;49.910;6.792;2022-10-18T02:02:47;99634.56;;;17.53;100.00
26807;BME280;14380;49.910;6.792;2022-10-18T02:05:23;99637.13;;;17.42;100.00
26807;BME280;14380;49.910;6.792;2022-10-18T02:07:59;99637.09;;;17.54;100.00
26807;BME280;14380;49.910;6.792;2022-10-18T02:10:33;99628.56;;;17.49;100.00
26807;BME280;14380;49.910;6.792;2022-10-18T02:13:01;99632.75;;;17.41;100.00
26807;BME280;14380;49.910;6.792;2022-10-18T02:15:31;99627.94;;;17.59;100.00
26807;BME280;14380;49.910;6.792;2022-10-18T02:18:00;99630.59;;;17.59;100.00
26807;BME280;14380;49.910;6.792;2022-10-18T02:20:30;99634.78;;;17.37;100.00
26807;BME280;14380;49.910;6.792;2022-10-18T02:22:59;99631.91;;;17.53;100.00
26807;BME280;14380;49.910;6.792;2022-10-18T02:25:29;99626.56;;;17.40;100.00
26807;BME280;14380;49.910;6.792;2022-10-18T02:27:57;99630.84;;;17.30;100.00
26807;BME280;14380;49.910;6.792;2022-10-18T02:30:26;99641.63;;;17.54;100.00
26807;BME280;14380;49.910;6.792;2022-10-18T02:33:01;99639.69;;;17.43;100.00
26807;BME280;14380;49.910;6.792;2022-10-18T02:35:31;99643.94;;;17.59;100.00
26807;BME280;14380;49.910;6.792;2022-10-18T02:38:02;99638.28;;;17.50;100.00
26807;BME280;14380;49.910;6.792;2022-10-18T02:40:30;99642.88;;;17.48;100.00
26807;BME280;14380;49.910;6.792;2022-10-18T02:42:57;99644.81;;;17.59;100.00
26807;BME280;14380;49.910;6.792;2022-10-18T02:45:24;99643.22;;;17.44;100.00
26807;BME280;14380;49.910;6.792;2022-10-18T02:47:52;99647.25;;;17.49;100.00
26807;BME280;14380;49.910;6.792;2022-10-18T02:50:20;99654.44;;;17.49;100.00
26807;BME280;14380;49.910;6.792;2022-10-18T02:52:46;99652.41;;;17.39;100.00
26807;BME280;14380;49.910;6.792;2022-10-18T02:55:13;99647.38;;;17.48;100.00
26807;BME280;14380;49.910;6.792;2022-10-18T02:57:40;99638.72;;;17.57;100.00
26807;BME280;14380;49.910;6.792;2022-10-18T03:00:07;99639.56;;;17.58;100.00
26807;BME280;14380;49.910;6.792;2022-10-18T03:02:34;99646.97;;;17.54;100.00
26807;BME280;14380;49.910;6.792;2022-10-18T03:05:01;99640.50;;;17.69;100.00
26807;BME280;14380;49.910;6.792;2022-10-18T03:07:29;99651.13;;;17.58;100.00
26807;BME280;14380;49.910;6.792;2022-10-18T03:09:56;99641.28;;;17.59;100.00
26807;BME280;14380;49.910;6.792;2022-10-18T03:12:22;99632.84;;;17.52;100.00
26807;BME280;14380;49.910;6.792;2022-10-18T03:14:49;99636.78;;;17.46;100.00
26807;BME280;14380;49.910;6.792;2022-10-18T03:17:15;99634.03;;;17.48;100.00
26807;BME280;14380;49.910;6.792;2022-10-18T03:19:42;99629.53;;;17.48;100.00
26807;BME280;14380;49.910;6.792;2022-10-18T03:22:09;99641.50;;;17.43;100.00
26807;BME280;14380;49.910;6.792;2022-10-18T03:24:37;99637.47;;;17.37;100.00
26807;BME280;14380;49.910;6.792;2022-10-18T03:27:03;99639.47;;;17.46;100.00
26807;BME280;14380;49.910;6.792;2022-10-18T03:29:30;99646.28;;;17.50;100.00
26807;BME280;14380;49.910;6.792;2022-10-18T03:31:56;99630.41;;;17.49;100.00
26807;BME280;14380;49.910;6.792;2022-10-18T03:34:23;99633.91;;;17.36;100.00
26807;BME280;14380;49.910;6.792;2022-10-18T03:36:50;99633.72;;;17.39;100.00
26807;BME280;14380;49.910;6.792;2022-10-18T03:39:16;99623.44;;;17.46;100.00
26807;BME280;14380;49.910;6.792;2022-10-18T03:41:44;99627.84;;;17.34;100.00
26807;BME280;14380;49.910;6.792;2022-10-18T03:44:11;99639.38;;;17.35;100.00
26807;BME280;14380;49.910;6.792;2022-10-18T03:46:37;99637.75;;;17.45;100.00
26807;BME280;14380;49.910;6.792;2022-10-18T03:49:04;99651.84;;;17.47;100.00
26807;BME280;14380;49.910;6.792;2022-10-18T03:51:30;99650.34;;;17.30;100.00
26807;BME280;14380;49.910;6.792;2022-10-18T03:53:58;99645.13;;;17.42;100.00
26807;BME280;14380;49.910;6.792;2022-10-18T03:56:25;99650.91;;;17.35;100.00
26807;BME280;14380;49.910;6.792;2022-10-18T03:58:53;99654.22;;;17.39;100.00
26807;BME280;14380;49.910;6.792;2022-10-18T04:01:19;99649.94;;;17.36;100.00
26807;BME280;14380;49.910;6.792;2022-10-18T04:03:46;99648.75;;;17.28;100.00
26807;BME280;14380;49.910;6.792;2022-10-18T04:06:12;99651.00;;;17.34;100.00
26807;BME280;14380;49.910;6.792;2022-10-18T04:08:39;99651.84;;;17.34;100.00
26807;BME280;14380;49.910;6.792;2022-10-18T04:11:06;99656.56;;;17.31;100.00
26807;BME280;14380;49.910;6.792;2022-10-18T04:13:34;99656.03;;;17.38;100.00
26807;BME280;14380;49.910;6.792;2022-10-18T04:16:02;99655.59;;;17.45;100.00
26807;BME280;14380;49.910;6.792;2022-10-18T04:18:29;99655.38;;;17.48;100.00
26807;BME280;14380;49.910;6.792;2022-10-18T04:20:55;99652.31;;;17.41;100.00
26807;BME280;14380;49.910;6.792;2022-10-18T04:23:22;99648.22;;;17.35;100.00
26807;BME280;14380;49.910;6.792;2022-10-18T04:25:48;99645.34;;;17.26;100.00
26807;BME280;14380;49.910;6.792;2022-10-18T04:28:15;99651.75;;;17.36;100.00
26807;BME280;14380;49.910;6.792;2022-10-18T04:30:42;99647.19;;;17.38;100.00
26807;BME280;14380;49.910;6.792;2022-10-18T04:33:10;99646.41;;;17.49;100.00
26807;BME280;14380;49.910;6.792;2022-10-18T04:35:37;99654.00;;;17.42;100.00
26807;BME280;14380;49.910;6.792;2022-10-18T04:38:04;99654.84;;;17.30;100.00
26807;BME280;14380;49.910;6.792;2022-10-18T04:40:30;99657.81;;;17.25;100.00
26807;BME280;14380;49.910;6.792;2022-10-18T04:42:57;99656.44;;;17.45;100.00
26807;BME280;14380;49.910;6.792;2022-10-18T04:45:23;99658.81;;;17.50;100.00
26807;BME280;14380;49.910;6.792;2022-10-18T04:47:50;99660.59;;;17.49;100.00
26807;BME280;14380;49.910;6.792;2022-10-18T04:50:19;99658.16;;;17.46;100.00
26807;BME280;14380;49.910;6.792;2022-10-18T04:52:45;99658.56;;;17.27;100.00
26807;BME280;14380;49.910;6.792;2022-10-18T04:55:12;99653.91;;;17.31;100.00
26807;BME280;14380;49.910;6.792;2022-10-18T04:57:38;99657.19;;;17.34;100.00
26807;BME280;14380;49.910;6.792;2022-10-18T05:00:06;99652.59;;;17.36;100.00
26807;BME280;14380;49.910;6.792;2022-10-18T05:02:32;99664.13;;;17.24;100.00
26807;BME280;14380;49.910;6.792;2022-10-18T05:04:59;99654.09;;;17.28;100.00
26807;BME280;14380;49.910;6.792;2022-10-18T05:07:27;99663.81;;;17.29;100.00
26807;BME280;14380;49.910;6.792;2022-10-18T05:09:54;99663.63;;;17.32;100.00
26807;BME280;14380;49.910;6.792;2022-10-18T05:12:20;99661.69;;;17.34;100.00
26807;BME280;14380;49.910;6.792;2022-10-18T05:14:47;99665.94;;;17.36;100.00
26807;BME280;14380;49.910;6.792;2022-10-18T05:17:14;99661.78;;;17.19;100.00
26807;BME280;14380;49.910;6.792;2022-10-18T05:19:40;99653.03;;;17.30;100.00
26807;BME280;14380;49.910;6.792;2022-10-18T05:22:07;99656.78;;;17.41;100.00
26807;BME280;14380;49.910;6.792;2022-10-18T05:24:35;99656.16;;;17.37;100.00
26807;BME280;14380;49.910;6.792;2022-10-18T05:27:02;99665.31;;;17.33;100.00
26807;BME280;14380;49.910;6.792;2022-10-18T05:29:28;99669.47;;;17.24;100.00
26807;BME280;14380;49.910;6.792;2022-10-18T05:31:55;99667.31;;;17.29;100.00
26807;BME280;14380;49.910;6.792;2022-10-18T05:34:22;99671.50;;;17.33;100.00
26807;BME280;14380;49.910;6.792;2022-10-18T05:36:49;99674.28;;;17.32;100.00
26807;BME280;14380;49.910;6.792;2022-10-18T05:39:15;99675.44;;;17.53;100.00
26807;BME280;14380;49.910;6.792;2022-10-18T05:41:43;99670.03;;;17.42;100.00
26807;BME280;14380;49.910;6.792;2022-10-18T05:44:10;99685.19;;;17.29;100.00
26807;BME280;14380;49.910;6.792;2022-10-18T05:46:36;99678.47;;;17.36;100.00
26807;BME280;14380;49.910;6.792;2022-10-18T05:49:03;99677.69;;;17.21;100.00
26807;BME280;14380;49.910;6.792;2022-10-18T05:51:30;99687.72;;;17.30;100.00
26807;BME280;14380;49.910;6.792;2022-10-18T05:53:56;99686.13;;;17.15;100.00
26807;BME280;14380;49.910;6.792;2022-10-18T05:56:23;99691.75;;;17.23;100.00
26807;BME280;14380;49.910;6.792;2022-10-18T05:58:51;99692.50;;;17.12;100.00
26807;BME280;14380;49.910;6.792;2022-10-18T06:01:18;99689.00;;;17.24;100.00
26807;BME280;14380;49.910;6.792;2022-10-18T06:03:45;99695.19;;;17.25;100.00
26807;BME280;14380;49.910;6.792;2022-10-18T06:06:12;99702.34;;;17.12;100.00
26807;BME280;14380;49.910;6.792;2022-10-18T06:08:40;99699.00;;;17.08;100.00
26807;BME280;14380;49.910;6.792;2022-10-18T06:11:08;99705.22;;;17.08;100.00
26807;BME280;14380;49.910;6.792;2022-10-18T06:13:38;99705.75;;;17.14;100.00
26807;BME280;14380;49.910;6.792;2022-10-18T06:16:07;99703.59;;;17.06;100.00
26807;BME280;14380;49.910;6.792;2022-10-18T06:18:34;99710.75;;;17.05;100.00
26807;BME280;14380;49.910;6.792;2022-10-18T06:21:01;99713.09;;;17.10;100.00
26807;BME280;14380;49.910;6.792;2022-10-18T06:23:27;99708.69;;;16.96;100.00
26807;BME280;14380;49.910;6.792;2022-10-18T06:25:57;99712.34;;;17.08;100.00
26807;BME280;14380;49.910;6.792;2022-10-18T06:28:24;99712.25;;;17.09;100.00
26807;BME280;14380;49.910;6.792;2022-10-18T06:30:51;99710.31;;;16.99;100.00
26807;BME280;14380;49.910;6.792;2022-10-18T06:33:19;99706.50;;;17.16;100.00
26807;BME280;14380;49.910;6.792;2022-10-18T06:35:53;99709.28;;;17.27;100.00
26807;BME280;14380;49.910;6.792;2022-10-18T06:38:20;99709.38;;;17.13;100.00
26807;BME280;14380;49.910;6.792;2022-10-18T06:40:47;99712.88;;;17.13;100.00
26807;BME280;14380;49.910;6.792;2022-10-18T06:43:14;99706.94;;;17.22;100.00
26807;BME280;14380;49.910;6.792;2022-10-18T06:45:40;99712.34;;;17.08;100.00
26807;BME280;14380;49.910;6.792;2022-10-18T06:48:07;99717.00;;;17.32;100.00
26807;BME280;14380;49.910;6.792;2022-10-18T06:50:35;99725.63;;;17.22;100.00
26807;BME280;14380;49.910;6.792;2022-10-18T06:53:02;99734.59;;;17.34;100.00
26807;BME280;14380;49.910;6.792;2022-10-18T06:55:30;99733.75;;;17.21;100.00
26807;BME280;14380;49.910;6.792;2022-10-18T06:57:57;99741.03;;;17.32;100.00
26807;BME280;14380;49.910;6.792;2022-10-18T07:00:23;99742.94;;;17.30;100.00
26807;BME280;14380;49.910;6.792;2022-10-18T07:02:50;99748.81;;;17.22;100.00
26807;BME280;14380;49.910;6.792;2022-10-18T07:05:17;99746.69;;;17.40;100.00
26807;BME280;14380;49.910;6.792;2022-10-18T07:07:45;99757.38;;;17.40;100.00
26807;BME280;14380;49.910;6.792;2022-10-18T07:10:11;99759.94;;;17.42;100.00
26807;BME280;14380;49.910;6.792;2022-10-18T07:12:38;99763.69;;;17.52;100.00
26807;BME280;14380;49.910;6.792;2022-10-18T07:15:05;99770.19;;;17.48;100.00
26807;BME280;14380;49.910;6.792;2022-10-18T07:17:32;99764.94;;;17.33;100.00
26807;BME280;14380;49.910;6.792;2022-10-18T07:19:58;99774.44;;;17.37;100.00
26807;BME280;14380;49.910;6.792;2022-10-18T07:22:25;99778.88;;;17.64;100.00
26807;BME280;14380;49.910;6.792;2022-10-18T07:24:53;99786.22;;;17.61;100.00
26807;BME280;14380;49.910;6.792;2022-10-18T07:27:20;99789.25;;;17.82;100.00
26807;BME280;14380;49.910;6.792;2022-10-18T07:29:47;99785.63;;;17.70;100.00
26807;BME280;14380;49.910;6.792;2022-10-18T07:32:14;99790.88;;;17.84;100.00
26807;BME280;14380;49.910;6.792;2022-10-18T07:34:40;99790.31;;;17.79;100.00
26807;BME280;14380;49.910;6.792;2022-10-18T07:37:07;99797.84;;;18.00;100.00
26807;BME280;14380;49.910;6.792;2022-10-18T07:39:34;99802.50;;;17.96;100.00
26807;BME280;14380;49.910;6.792;2022-10-18T07:42:02;99802.94;;;17.90;100.00
26807;BME280;14380;49.910;6.792;2022-10-18T07:44:29;99808.63;;;18.11;100.00
26807;BME280;14380;49.910;6.792;2022-10-18T07:46:55;99811.94;;;18.15;100.00
26807;BME280;14380;49.910;6.792;2022-10-18T07:49:22;99802.75;;;18.06;100.00
26807;BME280;14380;49.910;6.792;2022-10-18T07:51:48;99807.03;;;18.22;100.00
26807;BME280;14380;49.910;6.792;2022-10-18T07:54:15;99810.53;;;18.35;100.00
26807;BME280;14380;49.910;6.792;2022-10-18T07:56:42;99811.09;;;18.27;100.00
26807;BME280;14380;49.910;6.792;2022-10-18T07:59:10;99811.00;;;18.29;100.00
26807;BME280;14380;49.910;6.792;2022-10-18T08:01:36;99806.16;;;18.21;100.00
26807;BME280;14380;49.910;6.792;2022-10-18T08:04:03;99818.25;;;18.27;100.00
26807;BME280;14380;49.910;6.792;2022-10-18T08:06:30;99809.16;;;18.30;100.00
26807;BME280;14380;49.910;6.792;2022-10-18T08:08:56;99798.59;;;18.28;100.00
26807;BME280;14380;49.910;6.792;2022-10-18T08:11:24;99804.56;;;18.19;100.00
26807;BME280;14380;49.910;6.792;2022-10-18T08:13:51;99809.25;;;18.41;100.00
26807;BME280;14380;49.910;6.792;2022-10-18T08:16:21;99799.41;;;18.41;100.00
26807;BME280;14380;49.910;6.792;2022-10-18T08:18:48;99803.34;;;18.49;100.00
26807;BME280;14380;49.910;6.792;2022-10-18T08:21:17;99799.81;;;18.61;100.00
26807;BME280;14380;49.910;6.792;2022-10-18T08:23:43;99806.03;;;18.86;100.00
26807;BME280;14380;49.910;6.792;2022-10-18T08:26:12;99804.75;;;18.92;100.00
26807;BME280;14380;49.910;6.792;2022-10-18T08:28:39;99807.28;;;18.93;100.00
26807;BME280;14380;49.910;6.792;2022-10-18T08:31:07;99805.03;;;19.00;100.00
26807;BME280;14380;49.910;6.792;2022-10-18T08:33:36;99817.94;;;19.19;100.00
26807;BME280;14380;49.910;6.792;2022-10-18T08:36:06;99821.56;;;19.42;100.00
26807;BME280;14380;49.910;6.792;2022-10-18T08:38:33;99823.97;;;19.10;100.00
26807;BME280;14380;49.910;6.792;2022-10-18T08:41:13;99835.72;;;19.20;100.00
26807;BME280;14380;49.910;6.792;2022-10-18T08:43:45;99841.91;;;18.96;100.00
26807;BME280;14380;49.910;6.792;2022-10-18T08:46:16;99841.25;;;18.93;100.00
26807;BME280;14380;49.910;6.792;2022-10-18T08:48:47;99839.84;;;18.87;100.00
26807;BME280;14380;49.910;6.792;2022-10-18T08:51:21;99839.00;;;18.86;100.00
26807;BME280;14380;49.910;6.792;2022-10-18T08:53:58;99839.13;;;18.98;100.00
26807;BME280;14380;49.910;6.792;2022-10-18T08:56:28;99837.66;;;18.68;100.00
26807;BME280;14380;49.910;6.792;2022-10-18T08:58:55;99830.47;;;18.81;100.00
26807;BME280;14380;49.910;6.792;2022-10-18T09:01:27;99832.34;;;18.92;100.00
26807;BME280;14380;49.910;6.792;2022-10-18T09:04:13;99840.19;;;18.82;100.00
26807;BME280;14380;49.910;6.792;2022-10-18T09:06:48;99838.25;;;18.97;100.00
26807;BME280;14380;49.910;6.792;2022-10-18T09:09:25;99842.81;;;19.08;100.00
26807;BME280;14380;49.910;6.792;2022-10-18T09:12:02;99846.91;;;19.25;100.00
26807;BME280;14380;49.910;6.792;2022-10-18T09:14:47;99852.69;;;18.82;100.00
26807;BME280;14380;49.910;6.792;2022-10-18T09:17:26;99853.66;;;18.81;100.00
26807;BME280;14380;49.910;6.792;2022-10-18T09:20:06;99853.88;;;18.91;100.00
26807;BME280;14380;49.910;6.792;2022-10-18T09:22:47;99846.28;;;18.84;100.00
26807;BME280;14380;49.910;6.792;2022-10-18T09:25:18;99850.44;;;19.01;100.00
26807;BME280;14380;49.910;6.792;2022-10-18T09:27:53;99852.25;;;19.01;100.00
26807;BME280;14380;49.910;6.792;2022-10-18T09:30:41;99847.50;;;19.17;100.00
26807;BME280;14380;49.910;6.792;2022-10-18T09:33:21;99854.38;;;19.09;100.00
26807;BME280;14380;49.910;6.792;2022-10-18T09:35:55;99847.50;;;19.17;100.00
26807;BME280;14380;49.910;6.792;2022-10-18T09:38:25;99852.41;;;19.24;100.00
26807;BME280;14380;49.910;6.792;2022-10-18T09:40:57;99855.81;;;19.26;100.00
26807;BME280;14380;49.910;6.792;2022-10-18T09:43:44;99856.41;;;19.18;100.00
26807;BME280;14380;49.910;6.792;2022-10-18T09:46:12;99859.47;;;19.25;100.00
26807;BME280;14380;49.910;6.792;2022-10-18T09:48:45;99858.81;;;19.21;100.00
26807;BME280;14380;49.910;6.792;2022-10-18T09:51:16;99859.97;;;19.30;100.00
26807;BME280;14380;49.910;6.792;2022-10-18T09:53:55;99857.16;;;19.31;100.00
26807;BME280;14380;49.910;6.792;2022-10-18T09:56:29;99859.34;;;19.26;100.00
26807;BME280;14380;49.910;6.792;2022-10-18T09:58:56;99865.34;;;19.30;100.00
26807;BME280;14380;49.910;6.792;2022-10-18T10:01:25;99873.88;;;19.35;100.00
26807;BME280;14380;49.910;6.792;2022-10-18T10:03:52;99877.84;;;19.54;100.00
26807;BME280;14380;49.910;6.792;2022-10-18T10:06:25;99871.72;;;19.65;100.00
26807;BME280;14380;49.910;6.792;2022-10-18T10:09:00;99865.47;;;19.64;100.00
26807;BME280;14380;49.910;6.792;2022-10-18T10:11:33;99872.41;;;19.67;100.00
26807;BME280;14380;49.910;6.792;2022-10-18T10:14:11;99865.28;;;20.03;100.00
26807;BME280;14380;49.910;6.792;2022-10-18T10:16:43;99871.59;;;20.02;100.00
26807;BME280;14380;49.910;6.792;2022-10-18T10:19:16;99875.25;;;20.12;100.00
26807;BME280;14380;49.910;6.792;2022-10-18T10:21:46;99885.94;;;19.89;100.00
26807;BME280;14380;49.910;6.792;2022-10-18T10:24:23;99886.31;;;19.96;100.00
26807;BME280;14380;49.910;6.792;2022-10-18T10:26:58;99887.94;;;19.99;100.00
26807;BME280;14380;49.910;6.792;2022-10-18T10:29:53;99886.16;;;20.22;100.00
26807;BME280;14380;49.910;6.792;2022-10-18T10:32:24;99889.31;;;20.39;100.00
26807;BME280;14380;49.910;6.792;2022-10-18T10:34:51;99889.03;;;20.08;100.00
26807;BME280;14380;49.910;6.792;2022-10-18T10:37:34;99877.66;;;20.74;100.00
26807;BME280;14380;49.910;6.792;2022-10-18T10:40:16;99880.09;;;21.00;100.00
26807;BME280;14380;49.910;6.792;2022-10-18T10:42:56;99884.97;;;20.60;100.00
26807;BME280;14380;49.910;6.792;2022-10-18T10:45:25;99875.06;;;20.38;100.00
26807;BME280;14380;49.910;6.792;2022-10-18T10:47:53;99881.38;;;20.26;100.00
26807;BME280;14380;49.910;6.792;2022-10-18T10:50:27;99888.00;;;20.67;100.00
26807;BME280;14380;49.910;6.792;2022-10-18T10:52:57;99881.75;;;20.32;100.00
26807;BME280;14380;49.910;6.792;2022-10-18T10:55:25;99885.03;;;20.25;100.00
26807;BME280;14380;49.910;6.792;2022-10-18T10:57:54;99888.44;;;20.15;100.00
26807;BME280;14380;49.910;6.792;2022-10-18T11:00:38;99891.16;;;20.27;100.00
26807;BME280;14380;49.910;6.792;2022-10-18T11:03:10;99881.25;;;20.16;100.00
26807;BME280;14380;49.910;6.792;2022-10-18T11:05:43;99883.06;;;20.04;100.00
26807;BME280;14380;49.910;6.792;2022-10-18T11:08:14;99881.91;;;20.42;100.00
26807;BME280;14380;49.910;6.792;2022-10-18T11:10:49;99887.03;;;20.45;100.00
26807;BME280;14380;49.910;6.792;2022-10-18T11:13:24;99889.13;;;20.64;100.00
26807;BME280;14380;49.910;6.792;2022-10-18T11:15:56;99892.25;;;20.47;100.00
26807;BME280;14380;49.910;6.792;2022-10-18T11:18:28;99886.44;;;20.64;100.00
26807;BME280;14380;49.910;6.792;2022-10-18T11:21:00;99891.31;;;20.71;100.00
26807;BME280;14380;49.910;6.792;2022-10-18T11:23:34;99895.69;;;20.49;100.00
26807;BME280;14380;49.910;6.792;2022-10-18T11:26:13;99895.31;;;20.31;100.00
26807;BME280;14380;49.910;6.792;2022-10-18T11:28:57;99895.06;;;20.34;100.00
26807;BME280;14380;49.910;6.792;2022-10-18T11:31:30;99891.13;;;20.15;100.00
26807;BME280;14380;49.910;6.792;2022-10-18T11:34:13;99894.06;;;20.24;100.00
26807;BME280;14380;49.910;6.792;2022-10-18T11:36:50;99897.97;;;19.84;100.00
26807;BME280;14380;49.910;6.792;2022-10-18T11:39:26;99889.06;;;19.83;100.00
26807;BME280;14380;49.910;6.792;2022-10-18T11:42:02;99892.56;;;19.72;100.00
26807;BME280;14380;49.910;6.792;2022-10-18T11:44:37;99890.59;;;19.99;100.00
26807;BME280;14380;49.910;6.792;2022-10-18T11:47:12;99895.84;;;19.76;100.00
26807;BME280;14380;49.910;6.792;2022-10-18T11:49:54;99895.00;;;19.75;100.00
26807;BME280;14380;49.910;6.792;2022-10-18T11:52:28;99892.97;;;19.55;100.00
26807;BME280;14380;49.910;6.792;2022-10-18T11:55:12;99891.59;;;19.49;100.00
26807;BME280;14380;49.910;6.792;2022-10-18T11:57:51;99885.22;;;19.39;100.00
26807;BME280;14380;49.910;6.792;2022-10-18T12:00:31;99893.69;;;19.57;100.00
26807;BME280;14380;49.910;6.792;2022-10-18T12:03:31;99882.88;;;19.58;100.00
26807;BME280;14380;49.910;6.792;2022-10-18T12:06:02;99886.03;;;19.52;100.00
26807;BME280;14380;49.910;6.792;2022-10-18T12:08:33;99880.66;;;19.52;100.00
26807;BME280;14380;49.910;6.792;2022-10-18T12:11:06;99878.44;;;19.46;100.00
26807;BME280;14380;49.910;6.792;2022-10-18T12:13:38;99879.41;;;19.45;100.00
26807;BME280;14380;49.910;6.792;2022-10-18T12:16:07;99883.88;;;18.96;100.00
26807;BME280;14380;49.910;6.792;2022-10-18T12:18:40;99881.25;;;19.07;100.00
26807;BME280;14380;49.910;6.792;2022-10-18T12:21:11;99877.06;;;19.16;100.00
26807;BME280;14380;49.910;6.792;2022-10-18T12:23:44;99876.56;;;19.35;100.00
26807;BME280;14380;49.910;6.792;2022-10-18T12:26:16;99874.03;;;19.21;100.00
26807;BME280;14380;49.910;6.792;2022-10-18T12:28:50;99870.78;;;19.28;100.00
26807;BME280;14380;49.910;6.792;2022-10-18T12:31:23;99868.53;;;19.59;100.00
26807;BME280;14380;49.910;6.792;2022-10-18T12:33:54;99875.91;;;19.56;100.00
26807;BME280;14380;49.910;6.792;2022-10-18T12:36:38;99871.22;;;19.71;100.00
26807;BME280;14380;49.910;6.792;2022-10-18T12:39:11;99861.69;;;19.55;100.00
26807;BME280;14380;49.910;6.792;2022-10-18T12:41:45;99855.25;;;19.34;100.00
26807;BME280;14380;49.910;6.792;2022-10-18T12:44:18;99854.28;;;19.35;100.00
26807;BME280;14380;49.910;6.792;2022-10-18T12:46:47;99851.19;;;19.28;100.00
26807;BME280;14380;49.910;6.792;2022-10-18T12:49:17;99858.63;;;19.60;100.00
26807;BME280;14380;49.910;6.792;2022-10-18T12:51:51;99858.88;;;19.57;100.00
26807;BME280;14380;49.910;6.792;2022-10-18T12:54:22;99854.03;;;19.62;100.00
26807;BME280;14380;49.910;6.792;2022-10-18T12:56:51;99848.69;;;19.38;100.00
26807;BME280;14380;49.910;6.792;2022-10-18T12:59:47;99855.88;;;19.37;100.00
26807;BME280;14380;49.910;6.792;2022-10-18T13:02:25;99855.88;;;19.61;100.00
26807;BME280;14380;49.910;6.792;2022-10-18T13:04:53;99860.44;;;19.84;100.00
26807;BME280;14380;49.910;6.792;2022-10-18T13:07:32;99856.13;;;20.05;100.00
26807;BME280;14380;49.910;6.792;2022-10-18T13:10:38;99856.13;;;20.05;100.00